createdAt,value
2023-05-07T00:03:15.074Z,5.60
2023-05-07T00:08:21.627Z,6.10
2023-05-07T00:13:27.255Z,6.00
2023-05-07T00:18:32.913Z,4.70
2023-05-07T00:23:38.415Z,6.70
2023-05-07T00:28:44.434Z,5.80
2023-05-07T00:33:49.990Z,4.50
2023-05-07T00:38:58.213Z,5.30
2023-05-07T00:44:03.652Z,5.80
2023-05-07T00:49:09.448Z,5.10
2023-05-07T00:54:15.852Z,5.00
2023-05-07T00:59:21.636Z,4.80
2023-05-07T01:04:27.391Z,5.80
2023-05-07T01:09:33.596Z,5.10
2023-05-07T01:14:39.123Z,4.50
2023-05-07T01:19:45.190Z,5.30
2023-05-07T01:24:51.118Z,5.50
2023-05-07T01:29:57.125Z,4.90
2023-05-07T01:35:06.244Z,4.80
2023-05-07T01:40:13.209Z,5.70
2023-05-07T01:45:19.275Z,6.50
2023-05-07T01:50:26.251Z,5.00
2023-05-07T01:55:32.454Z,4.50
2023-05-07T02:00:38.045Z,4.90
2023-05-07T02:05:44.172Z,8.70
2023-05-07T02:11:06.607Z,3.20
2023-05-07T02:16:15.385Z,5.80
2023-05-07T02:21:21.364Z,5.80
2023-05-07T02:26:26.874Z,6.30
2023-05-07T02:31:34.939Z,5.80
2023-05-07T02:36:41.007Z,3.40
2023-05-07T02:41:49.873Z,5.20
2023-05-07T02:46:55.514Z,4.90
2023-05-07T02:52:01.934Z,5.50
2023-05-07T02:57:07.581Z,5.00
2023-05-07T03:02:13.083Z,5.80
2023-05-07T03:07:19.518Z,4.70
2023-05-07T03:12:25.218Z,7.40
2023-05-07T03:17:31.333Z,3.70
2023-05-07T03:22:36.908Z,4.70
2023-05-07T03:27:43.317Z,5.70
2023-05-07T03:32:49.621Z,4.80
2023-05-07T03:37:55.564Z,3.10
2023-05-07T03:43:02.047Z,4.40
2023-05-07T03:48:08.796Z,3.20
2023-05-07T03:53:14.757Z,3.70
2023-05-07T03:58:20.998Z,4.20
2023-05-07T04:03:27.146Z,5.50
2023-05-07T04:08:33.507Z,4.20
2023-05-07T04:13:39.277Z,4.00
2023-05-07T04:18:45.799Z,3.80
2023-05-07T04:23:51.641Z,4.50
2023-05-07T04:28:58.853Z,6.00
2023-05-07T04:34:06.555Z,4.30
2023-05-07T04:39:12.360Z,4.40
2023-05-07T04:44:18.487Z,3.50
2023-05-07T04:49:24.474Z,2.80
2023-05-07T04:54:30.627Z,3.60
2023-05-07T04:59:36.272Z,3.90
2023-05-07T05:04:42.597Z,5.70
2023-05-07T05:09:48.929Z,11.60
2023-05-07T05:14:54.573Z,23.50
2023-05-07T05:20:01.011Z,8.70
2023-05-07T05:25:08.653Z,6.20
2023-05-07T05:30:15.250Z,4.20
2023-05-07T05:35:23.410Z,5.40
2023-05-07T05:40:29.850Z,4.60
2023-05-07T05:45:35.532Z,4.30
2023-05-07T05:50:41.074Z,3.90
2023-05-07T05:55:47.606Z,4.80
2023-05-07T06:00:54.688Z,5.20
2023-05-07T06:06:01.840Z,4.10
2023-05-07T06:11:07.550Z,3.00
2023-05-07T06:16:15.272Z,4.60
2023-05-07T06:21:21.071Z,4.10
2023-05-07T06:26:27.403Z,3.30
2023-05-07T06:31:33.267Z,2.50
2023-05-07T06:36:45.300Z,3.20
2023-05-07T06:41:58.561Z,3.90
2023-05-07T06:47:07.018Z,4.60
2023-05-07T06:52:13.182Z,3.20
2023-05-07T06:57:19.304Z,4.10
2023-05-07T07:02:25.322Z,4.40
2023-05-07T07:07:31.567Z,5.30
2023-05-07T07:12:37.060Z,3.10
2023-05-07T07:17:43.295Z,3.90
2023-05-07T07:22:49.434Z,3.40
2023-05-07T07:27:55.792Z,4.70
2023-05-07T07:33:04.726Z,4.20
2023-05-07T07:38:18.613Z,5.60
2023-05-07T07:43:33.364Z,3.10
2023-05-07T07:48:39.447Z,4.40
2023-05-07T07:53:45.005Z,4.60
2023-05-07T07:58:51.054Z,4.40
2023-05-07T08:03:59.775Z,3.90
2023-05-07T08:09:06.120Z,4.30
2023-05-07T08:14:12.685Z,5.30
2023-05-07T08:19:18.748Z,3.60
2023-05-07T08:24:24.810Z,5.80
2023-05-07T08:29:30.847Z,4.10
2023-05-07T08:34:36.598Z,5.50
2023-05-07T08:39:43.518Z,3.10
2023-05-07T08:44:58.514Z,4.00
2023-05-07T08:50:05.861Z,3.60
2023-05-07T08:55:14.233Z,4.00
2023-05-07T09:00:21.305Z,3.90
2023-05-07T09:05:29.937Z,4.80
2023-05-07T09:10:36.585Z,3.70
2023-05-07T09:15:44.135Z,3.40
2023-05-07T09:20:49.957Z,3.70
2023-05-07T09:26:03.210Z,3.00
2023-05-07T09:31:11.920Z,3.70
2023-05-07T09:36:18.939Z,3.10
2023-05-07T09:41:25.094Z,4.00
2023-05-07T09:46:43.077Z,2.80
2023-05-07T09:51:56.170Z,4.90
2023-05-07T09:57:04.655Z,4.30
2023-05-07T10:02:13.340Z,4.10
2023-05-07T10:07:26.861Z,5.00
2023-05-07T10:12:39.940Z,2.40
2023-05-07T10:17:49.376Z,4.70
2023-05-07T10:22:57.313Z,3.50
2023-05-07T10:28:11.748Z,2.90
2023-05-07T10:38:24.289Z,2.70
2023-05-07T10:43:45.029Z,4.10
2023-05-07T10:49:12.775Z,2.10
2023-05-07T10:55:22.966Z,2.00
2023-05-07T11:00:48.695Z,3.70
2023-05-07T11:06:14.373Z,3.90
2023-05-07T11:11:53.601Z,6.80
2023-05-07T11:17:16.214Z,4.10
2023-05-07T11:22:43.100Z,3.80
2023-05-07T11:27:56.598Z,2.50
2023-05-07T11:33:11.575Z,4.20
2023-05-07T11:38:20.604Z,3.40
2023-05-07T11:43:26.997Z,4.50
2023-05-07T11:48:33.032Z,3.80
2023-05-07T11:53:41.696Z,3.50
2023-05-07T11:58:49.202Z,3.60
2023-05-07T12:03:55.170Z,4.90
2023-05-07T12:09:01.711Z,4.30
2023-05-07T12:14:09.511Z,3.80
2023-05-07T12:19:17.943Z,3.50
2023-05-07T12:24:23.913Z,2.00
2023-05-07T12:29:31.104Z,4.60
2023-05-07T12:34:37.631Z,3.90
2023-05-07T12:39:50.113Z,2.40
2023-05-07T12:44:55.562Z,1.90
2023-05-07T12:50:01.705Z,5.10
2023-05-07T12:55:14.835Z,7.00
2023-05-07T13:00:35.414Z,2.70
2023-05-07T13:05:41.719Z,4.40
2023-05-07T13:10:47.087Z,2.70
2023-05-07T13:15:52.470Z,2.40
2023-05-07T13:20:59.241Z,4.70
2023-05-07T13:26:18.462Z,3.20
2023-05-07T13:31:31.358Z,3.80
2023-05-07T13:36:41.090Z,2.40
2023-05-07T13:41:47.900Z,4.60
2023-05-07T13:46:53.321Z,4.20
2023-05-07T13:51:59.225Z,4.60
2023-05-07T13:57:05.005Z,3.90
2023-05-07T14:02:10.622Z,2.10
2023-05-07T14:07:16.382Z,5.30
2023-05-07T14:12:21.828Z,3.70
2023-05-07T14:17:28.087Z,3.20
2023-05-07T14:22:33.806Z,5.30
2023-05-07T14:27:39.591Z,2.20
2023-05-07T14:32:46.140Z,2.70
2023-05-07T14:37:51.787Z,3.80
2023-05-07T14:42:58.423Z,2.60
2023-05-07T14:48:04.471Z,3.40
2023-05-07T14:53:09.981Z,2.70
2023-05-07T14:58:15.492Z,4.50
2023-05-07T15:03:21.329Z,2.30
2023-05-07T15:08:27.828Z,7.30
2023-05-07T15:13:34.013Z,6.00
2023-05-07T15:18:39.490Z,4.20
2023-05-07T15:23:45.960Z,2.20
2023-05-07T15:28:51.869Z,3.10
2023-05-07T15:33:57.571Z,4.20
2023-05-07T15:39:04.575Z,5.60
2023-05-07T15:44:10.951Z,3.10
2023-05-07T15:49:17.161Z,3.20
2023-05-07T15:54:23.924Z,8.70
2023-05-07T15:59:30.075Z,6.10
2023-05-07T16:04:35.985Z,5.00
2023-05-07T16:09:41.727Z,5.60
2023-05-07T16:14:49.744Z,7.50
2023-05-07T16:19:55.661Z,5.90
2023-05-07T16:25:02.269Z,3.50
2023-05-07T16:30:09.896Z,3.10
2023-05-07T16:35:15.528Z,7.40
2023-05-07T16:40:21.304Z,4.90
2023-05-07T16:45:26.859Z,4.30
2023-05-07T16:50:32.614Z,5.50
2023-05-07T16:55:39.636Z,19.80
2023-05-07T17:05:55.144Z,9.20
2023-05-07T17:11:00.699Z,8.80
2023-05-07T17:16:07.145Z,7.70
2023-05-07T17:21:13.036Z,6.90
2023-05-07T17:26:18.672Z,4.60
2023-05-07T17:31:24.789Z,9.30
2023-05-07T17:36:31.443Z,10.90
2023-05-07T17:41:37.988Z,13.20
2023-05-07T17:46:43.780Z,9.40
2023-05-07T17:51:54.609Z,31.60
2023-05-07T17:57:01.371Z,25.20
2023-05-07T18:02:07.045Z,11.90
2023-05-07T18:07:12.538Z,7.00
2023-05-07T18:12:18.408Z,10.20
2023-05-07T18:17:24.508Z,10.10
2023-05-07T18:22:30.575Z,13.60
2023-05-07T18:27:36.379Z,10.50
2023-05-07T18:32:42.343Z,28.90
2023-05-07T18:37:48.178Z,47.80
2023-05-07T18:42:54.061Z,14.30
2023-05-07T18:48:00.012Z,42.80
2023-05-07T18:53:05.984Z,22.60
2023-05-07T18:58:11.703Z,16.10
2023-05-07T19:03:17.601Z,12.10
2023-05-07T19:08:23.257Z,13.50
2023-05-07T19:13:29.140Z,17.40
2023-05-07T19:18:34.936Z,12.10
2023-05-07T19:23:43.461Z,15.60
2023-05-07T19:28:57.003Z,12.20
2023-05-07T19:34:16.267Z,15.50
2023-05-07T19:39:22.623Z,13.30
2023-05-07T19:44:31.086Z,15.40
2023-05-07T19:49:38.715Z,31.80
2023-05-07T19:54:44.680Z,25.80
2023-05-07T20:02:59.175Z,28.10
2023-05-07T20:08:04.982Z,28.50
2023-05-07T20:13:10.708Z,30.60
2023-05-07T20:18:17.527Z,34.50
2023-05-07T20:23:23.445Z,39.70
2023-05-07T20:28:28.815Z,34.80
2023-05-07T20:33:35.676Z,47.80
2023-05-07T20:38:40.980Z,55.70
2023-05-07T20:43:46.358Z,61.60
2023-05-07T20:48:52.641Z,70.90
2023-05-07T20:53:58.062Z,61.30
2023-05-07T20:59:03.415Z,74.30
2023-05-07T21:04:09.680Z,61.00
2023-05-07T21:09:15.464Z,48.70
2023-05-07T21:14:21.157Z,55.00
2023-05-07T21:19:26.921Z,49.90
2023-05-07T21:24:32.791Z,49.90
2023-05-07T21:29:38.303Z,58.50
2023-05-07T21:34:43.685Z,53.10
2023-05-07T21:39:49.112Z,53.30
2023-05-07T21:44:54.663Z,52.70
2023-05-07T21:50:00.422Z,37.50
2023-05-07T21:55:07.342Z,35.80
2023-05-07T22:00:23.773Z,30.10
2023-05-07T22:05:29.267Z,39.00
2023-05-07T22:10:34.789Z,36.20
2023-05-07T22:15:53.079Z,38.00
2023-05-07T22:21:01.962Z,34.30
2023-05-07T22:32:06.863Z,32.30
2023-05-07T22:37:12.468Z,30.20
2023-05-07T22:42:18.080Z,27.80
2023-05-07T22:47:23.627Z,30.70
2023-05-07T22:52:31.727Z,31.50
2023-05-07T22:57:37.174Z,30.90
2023-05-07T23:02:42.662Z,26.40
2023-05-07T23:07:48.363Z,31.50
2023-05-07T23:12:54.268Z,26.30
2023-05-07T23:18:00.276Z,25.60
2023-05-07T23:23:05.757Z,23.70
2023-05-07T23:28:11.239Z,23.40
2023-05-07T23:33:16.725Z,29.70
2023-05-07T23:38:22.113Z,28.50
2023-05-07T23:43:27.886Z,33.40
2023-05-07T23:48:33.312Z,32.20
2023-05-07T23:53:38.652Z,29.50
2023-05-07T23:58:44.075Z,28.90
